S'manga Khumalo

S'manga Khumalo

Statistiques 2026

  • Courses courues : 73
  • Nb de victoires : 8
  • Nb de places : 21
  • Écart gagnant : 6
  • Réussite à la gagne : 11%
  • Réussite à la place : 29%
Musique : 0p 4p 6p 6p 1p 3p 12p 8p 3p 10p 7p 0p 7p 7p 10p 7p 9p 9p
DateRangCatégorieAlloc.Dist.HippodromeChevalPoidsSpé.
23/06/20 1 Galop 3 816€ SAF-VAAL Apollo Robbins 56 Plat
23/06/20 10 Galop 3 816€ SAF-VAAL Danza 59,5 Plat
23/06/20 11 Galop 3 816€ SAF-VAAL Sacred Castle 54 Plat
23/06/20 11 Galop 3 816€ SAF-VAAL Lone Survivor 59,5 Plat
25/06/20 5 Galop 3 816€ SAF-VAAL Chloe Girl 60 Plat
25/06/20 4 Galop 3 816€ SAF-VAAL Samurai Jack 54 Plat
25/06/20 6 Galop 3 816€ SAF-VAAL Circle Of Latitude 59 Plat
25/06/20 8 Galop 3 816€ SAF-VAAL Evening Rise 60,5 Plat
25/06/20 3 Galop 3 816€ SAF-VAAL On Broadway 54 Plat
30/06/20 7 Galop 3 816€ SAF-VAAL St Joseph's Lily 60 Plat
30/06/20 7 Galop 3 816€ SAF-VAAL Sea Like Glass 56 Plat
30/06/20 8 Galop 3 816€ SAF-VAAL Jungle Book 54,5 Plat
30/06/20 8 Galop 3 816€ SAF-VAAL Lady Lexington 55 Plat
30/06/20 5 Galop 3 816€ SAF-VAAL Malteza 58,5 Plat
30/06/20 6 Galop 3 816€ SAF-VAAL El'Zara 59,5 Plat
30/06/20 1 Galop 3 816€ SAF-VAAL Captain Hindsight 59,5 Plat
02/07/20 8 Galop 3 816€ SAF-VAAL Eurotec 57 Plat
02/07/20 1 Galop 3 816€ SAF-VAAL Laetitia's Angel 57 Plat
02/07/20 2 Galop 3 816€ SAF-VAAL Oyster King 58 Plat
02/07/20 0 Galop 3 816€ SAF-VAAL Skiminac 60 Plat
02/07/20 12 Galop 3 816€ SAF-VAAL Tombola 56,5 Plat
02/07/20 9 Galop 3 816€ SAF-VAAL Curious 58 Plat
02/07/20 10 Galop 3 816€ SAF-VAAL Midnight Top 56,5 Plat
02/07/20 4 Galop 3 816€ SAF-VAAL On Broadway 60 Plat
19/09/19 2 Galop 5 678€ SAF-VAAL Cairon 60 Plat
03/10/19 1 Galop 6 276€ SAF-VAAL Skiminac 56 Plat
24/10/19 5 Galop 6 367€ SAF-VAAL Crown Guardian 59,5 Plat
26/11/19 1 Galop 5 541€ SAF-VAAL August Rain 58 Plat
26/11/19 6 Galop 6 773€ SAF-VAAL Big Blue Marble 55,5 Plat
03/12/19 4 Galop 6 157€ SAF-VAAL Too Phat To Fly 60,5 Plat
24/12/19 6 Galop 8 004€ SAF-VAAL Chitengo 51 Plat
24/12/19 10 Galop 6 157€ SAF-VAAL Skiminac 58 Plat
28/01/20 10 Galop 5 725€ SAF-VAAL Master Of Disguise 60 Plat
05/03/20 2 Galop 5 725€ SAF-VAAL Afternoon Tea 60 Plat
09/07/20 5 Galop 3 816€ SAF-VAAL Jonny Ripon 60 Plat
09/07/20 4 Galop 3 816€ SAF-VAAL Wild Heritage 60 Plat
09/07/20 5 Galop 3 816€ SAF-VAAL Light Warrior 60 Plat
09/07/20 0 Galop 3 816€ SAF-VAAL Toto 57 Plat
09/07/20 1 Galop 3 816€ SAF-VAAL Sheer Talent 60 Plat
09/07/20 6 Galop 3 816€ SAF-VAAL Greek Fire 60 Plat
09/07/20 1 Galop 3 816€ SAF-VAAL Rouge Allure 60,5 Plat
09/07/20 1 Galop 3 816€ SAF-VAAL Before The Dawn 59 Plat
09/07/20 9 Galop 3 816€ SAF-VAAL Moggie Brown 56,5 Plat
14/07/20 3 Galop 3 816€ SAF-VAAL Gimme Annie 60 Plat
14/07/20 1 Galop 3 816€ SAF-VAAL Red Ten 60 Plat
14/07/20 14 Galop 3 816€ SAF-VAAL Rampage 60 Plat
14/07/20 6 Galop 3 816€ SAF-VAAL Illuminate 58,5 Plat
14/07/20 1 Galop 3 816€ SAF-VAAL Captain Hindsight 60 Plat
14/07/20 10 Galop 3 816€ SAF-VAAL Life Is Good 56,5 Plat
14/07/20 12 Galop 3 816€ SAF-VAAL Pacific Winter 59,5 Plat